createdAt,value
2019-02-16T00:01:31.583Z,7.30
2019-02-16T00:04:00.278Z,8.15
2019-02-16T00:06:28.992Z,9.08
2019-02-16T00:08:57.703Z,7.45
2019-02-16T00:11:26.395Z,7.33
2019-02-16T00:13:55.259Z,12.10
2019-02-16T00:16:23.990Z,9.53
2019-02-16T00:18:52.800Z,11.18
2019-02-16T00:21:21.534Z,10.82
2019-02-16T00:23:50.348Z,7.45
2019-02-16T00:26:19.110Z,7.80
2019-02-16T00:28:47.917Z,9.33
2019-02-16T00:31:16.644Z,11.83
2019-02-16T00:33:45.363Z,9.78
2019-02-16T00:36:14.190Z,8.15
2019-02-16T00:38:44.412Z,9.00
2019-02-16T00:41:13.154Z,6.87
2019-02-16T00:43:41.993Z,7.60
2019-02-16T00:46:10.733Z,6.85
2019-02-16T00:48:39.738Z,9.30
2019-02-16T00:51:13.537Z,8.95
2019-02-16T00:53:39.964Z,10.55
2019-02-16T00:56:08.853Z,7.70
2019-02-16T00:58:37.575Z,5.80
2019-02-16T01:01:06.283Z,9.13
2019-02-16T01:03:35.055Z,9.25
2019-02-16T01:06:03.866Z,14.25
2019-02-16T01:08:32.594Z,8.15
2019-02-16T01:11:01.335Z,7.90
2019-02-16T01:13:30.169Z,7.50
2019-02-16T01:15:58.995Z,10.00
2019-02-16T01:18:27.799Z,7.17
2019-02-16T01:20:56.623Z,7.12
2019-02-16T01:23:25.341Z,7.42
2019-02-16T01:25:54.306Z,5.80
2019-02-16T01:28:23.052Z,5.87
2019-02-16T01:30:51.846Z,7.50
2019-02-16T01:33:20.687Z,7.33
2019-02-16T01:35:49.557Z,7.42
2019-02-16T01:38:18.387Z,7.55
2019-02-16T01:40:47.506Z,8.35
2019-02-16T01:43:16.347Z,8.03
2019-02-16T01:45:45.305Z,7.83
2019-02-16T01:48:14.066Z,9.23
2019-02-16T01:50:42.877Z,9.28
2019-02-16T01:53:11.634Z,9.33
2019-02-16T01:55:40.662Z,7.97
2019-02-16T01:58:09.415Z,7.85
2019-02-16T02:00:38.164Z,9.10
2019-02-16T02:03:07.097Z,8.75
2019-02-16T02:05:35.886Z,8.68
2019-02-16T02:08:04.712Z,10.25
2019-02-16T02:10:33.629Z,6.62
2019-02-16T02:13:03.079Z,8.23
2019-02-16T02:15:31.868Z,9.18
2019-02-16T02:18:00.686Z,6.87
2019-02-16T02:20:29.587Z,8.08
2019-02-16T02:22:58.654Z,8.38
2019-02-16T02:25:27.420Z,11.25
2019-02-16T02:27:56.577Z,8.65
2019-02-16T02:30:25.413Z,7.55
2019-02-16T02:32:54.298Z,8.38
2019-02-16T02:35:23.153Z,7.78
2019-02-16T02:37:52.015Z,8.35
2019-02-16T02:40:21.095Z,7.92
2019-02-16T02:42:49.979Z,12.35
2019-02-16T02:45:18.905Z,8.75
2019-02-16T02:47:47.791Z,9.90
2019-02-16T02:50:16.605Z,8.33
2019-02-16T02:52:45.530Z,8.48
2019-02-16T02:55:14.252Z,8.55
2019-02-16T02:57:43.115Z,8.40
2019-02-16T03:00:12.006Z,10.68
2019-02-16T03:02:40.768Z,9.53
2019-02-16T03:05:09.852Z,9.28
2019-02-16T03:07:38.657Z,8.70
2019-02-16T03:10:07.544Z,7.12
2019-02-16T03:12:36.472Z,8.55
2019-02-16T03:15:05.631Z,14.38
2019-02-16T03:17:34.366Z,15.08
2019-02-16T03:20:03.258Z,10.23
2019-02-16T03:23:22.813Z,8.68
2019-02-16T03:25:58.252Z,7.87
2019-02-16T03:28:36.310Z,7.58
2019-02-16T03:31:45.613Z,7.83
2019-02-16T03:34:39.068Z,9.75
2019-02-16T03:37:38.545Z,8.90
2019-02-16T03:40:07.738Z,7.92
2019-02-16T03:42:36.635Z,13.90
2019-02-16T03:45:05.589Z,10.95
2019-02-16T03:47:34.503Z,8.13
2019-02-16T03:50:03.241Z,8.03
2019-02-16T03:52:32.047Z,7.95
2019-02-16T03:55:00.798Z,9.48
2019-02-16T03:57:29.683Z,12.50
2019-02-16T03:59:58.411Z,12.05
2019-02-16T04:02:27.252Z,8.65
2019-02-16T04:04:56.119Z,7.75
2019-02-16T04:07:24.986Z,11.85
2019-02-16T04:09:53.749Z,10.20
2019-02-16T04:12:22.533Z,9.25
2019-02-16T04:14:51.339Z,15.25
2019-02-16T04:17:20.026Z,9.33
2019-02-16T04:19:48.775Z,9.78
2019-02-16T04:22:24.741Z,11.07
2019-02-16T04:24:48.080Z,8.13
2019-02-16T04:27:16.778Z,11.60
2019-02-16T04:29:45.525Z,10.38
2019-02-16T04:32:14.241Z,10.05
2019-02-16T04:34:43.227Z,7.97
2019-02-16T04:37:11.942Z,8.88
2019-02-16T04:39:40.640Z,10.58
2019-02-16T04:42:09.415Z,9.73
2019-02-16T04:44:38.172Z,10.08
2019-02-16T04:47:06.955Z,9.50
2019-02-16T04:49:35.816Z,9.95
2019-02-16T04:52:04.517Z,9.90
2019-02-16T04:54:33.278Z,10.58
2019-02-16T04:57:02.036Z,8.45
2019-02-16T04:59:31.164Z,10.60
2019-02-16T05:01:59.906Z,9.48
2019-02-16T05:04:28.708Z,8.48
2019-02-16T05:06:57.483Z,12.90
2019-02-16T05:09:26.428Z,9.25
2019-02-16T05:11:55.150Z,8.48
2019-02-16T05:14:24.014Z,9.48
2019-02-16T05:16:52.789Z,9.95
2019-02-16T05:19:21.643Z,9.75
2019-02-16T05:21:50.405Z,9.63
2019-02-16T05:24:19.129Z,12.40
2019-02-16T05:26:48.008Z,10.15
2019-02-16T05:29:16.839Z,10.45
2019-02-16T05:31:45.595Z,10.35
2019-02-16T05:34:14.397Z,11.50
2019-02-16T05:36:43.409Z,10.95
2019-02-16T05:39:12.396Z,11.43
2019-02-16T05:41:41.278Z,9.63
2019-02-16T05:44:10.060Z,9.73
2019-02-16T05:46:39.037Z,12.53
2019-02-16T05:49:07.799Z,12.70
2019-02-16T05:51:36.538Z,11.63
2019-02-16T05:54:05.246Z,10.35
2019-02-16T05:56:34.006Z,9.78
2019-02-16T05:59:02.779Z,12.20
2019-02-16T06:01:31.552Z,10.55
2019-02-16T06:04:00.311Z,11.10
2019-02-16T06:06:29.162Z,10.50
2019-02-16T06:08:57.937Z,11.95
2019-02-16T06:11:26.732Z,7.92
2019-02-16T06:13:55.542Z,10.08
2019-02-16T06:16:24.371Z,11.70
2019-02-16T06:18:53.347Z,11.30
2019-02-16T06:21:22.049Z,9.23
2019-02-16T06:23:50.930Z,10.55
2019-02-16T06:26:19.722Z,9.23
2019-02-16T06:28:48.473Z,8.93
2019-02-16T06:31:17.159Z,10.20
2019-02-16T06:33:46.113Z,10.03
2019-02-16T06:36:39.927Z,8.70
2019-02-16T06:39:08.799Z,11.77
2019-02-16T06:41:37.579Z,11.68
2019-02-16T06:44:06.296Z,12.28
2019-02-16T06:46:35.113Z,11.18
2019-02-16T06:49:03.868Z,12.37
2019-02-16T06:51:32.754Z,11.30
2019-02-16T06:54:01.642Z,11.33
2019-02-16T06:56:53.972Z,16.05
2019-02-16T06:59:22.869Z,12.13
2019-02-16T07:01:51.839Z,10.85
2019-02-16T07:04:20.692Z,11.18
2019-02-16T07:06:49.686Z,14.47
2019-02-16T07:09:18.517Z,11.90
2019-02-16T07:11:47.366Z,11.48
2019-02-16T07:14:16.420Z,12.33
2019-02-16T07:17:10.245Z,11.18
2019-02-16T07:19:49.483Z,8.93
2019-02-16T07:22:18.278Z,12.90
2019-02-16T07:24:47.286Z,15.68
2019-02-16T07:27:16.182Z,13.62
2019-02-16T07:29:45.131Z,13.78
2019-02-16T07:32:14.216Z,12.13
2019-02-16T07:34:43.179Z,10.32
2019-02-16T07:37:11.950Z,12.13
2019-02-16T07:39:40.682Z,12.50
2019-02-16T07:42:09.493Z,16.20
2019-02-16T07:44:58.215Z,11.28
2019-02-16T07:47:38.441Z,11.90
2019-02-16T07:50:36.132Z,16.37
2019-02-16T07:53:11.823Z,15.93
2019-02-16T07:56:05.825Z,15.90
2019-02-16T07:58:39.682Z,13.15
2019-02-16T08:01:26.215Z,11.73
2019-02-16T08:04:12.835Z,12.63
2019-02-16T08:07:06.698Z,12.00
2019-02-16T08:09:54.584Z,15.00
2019-02-16T08:12:30.035Z,13.03
2019-02-16T08:15:07.053Z,15.55
2019-02-16T08:18:05.287Z,14.90
2019-02-16T08:20:42.527Z,19.32
2019-02-16T08:23:17.476Z,14.87
2019-02-16T08:26:14.224Z,14.43
2019-02-16T08:29:05.059Z,18.70
2019-02-16T08:31:55.746Z,16.23
2019-02-16T08:34:36.405Z,12.63
2019-02-16T08:37:12.155Z,22.35
2019-02-16T08:40:03.003Z,13.65
2019-02-16T08:42:44.607Z,12.30
2019-02-16T08:45:30.498Z,15.23
2019-02-16T08:48:24.317Z,16.23
2019-02-16T08:51:11.006Z,15.95
2019-02-16T08:53:50.062Z,16.02
2019-02-16T08:56:34.378Z,14.70
2019-02-16T08:59:20.841Z,11.35
2019-02-16T09:02:09.028Z,12.55
2019-02-16T09:05:05.739Z,16.27
2019-02-16T09:07:53.542Z,10.48
2019-02-16T09:10:31.396Z,14.50
2019-02-16T09:13:17.786Z,10.32
2019-02-16T09:16:20.888Z,9.03
2019-02-16T09:19:15.747Z,10.65
2019-02-16T09:22:08.875Z,14.38
2019-02-16T09:24:55.569Z,11.93
2019-02-16T09:27:37.780Z,9.25
2019-02-16T09:30:34.299Z,14.18
2019-02-16T09:33:25.519Z,10.08
2019-02-16T09:36:19.312Z,11.28
2019-02-16T09:38:59.865Z,12.55
2019-02-16T09:41:34.012Z,10.13
2019-02-16T09:44:27.890Z,12.43
2019-02-16T09:47:07.730Z,10.63
2019-02-16T09:49:44.346Z,12.35
2019-02-16T09:52:34.927Z,11.20
2019-02-16T09:55:19.266Z,12.60
2019-02-16T10:04:36.653Z,11.18
2019-02-16T10:07:19.250Z,14.05
2019-02-16T10:10:10.199Z,15.32
2019-02-16T10:12:53.230Z,10.45
2019-02-16T10:19:11.023Z,10.35
2019-02-16T10:21:57.405Z,13.25
2019-02-16T10:25:00.553Z,15.32
2019-02-16T10:27:36.584Z,15.20
2019-02-16T10:30:23.088Z,16.97
2019-02-16T10:33:08.295Z,19.00
2019-02-16T10:35:56.202Z,18.40
2019-02-16T10:38:42.629Z,15.78
2019-02-16T10:41:28.884Z,18.50
2019-02-16T10:44:16.737Z,15.95
2019-02-16T10:47:04.872Z,16.15
2019-02-16T10:49:52.914Z,17.10
2019-02-16T10:52:43.493Z,20.32
2019-02-16T10:55:41.663Z,20.75
2019-02-16T10:58:16.244Z,19.17
2019-02-16T11:01:10.146Z,20.65
2019-02-16T11:04:02.643Z,18.92
2019-02-16T11:06:46.064Z,21.30
2019-02-16T11:09:45.769Z,21.00
2019-02-16T11:12:36.225Z,23.20
2019-02-16T11:15:40.282Z,21.75
2019-02-16T11:18:26.814Z,30.08
2019-02-16T11:21:13.482Z,24.85
2019-02-16T11:23:55.034Z,26.17
2019-02-16T11:26:41.452Z,24.45
2019-02-16T11:29:28.112Z,23.35
2019-02-16T11:32:19.082Z,28.70
2019-02-16T11:34:53.613Z,21.33
2019-02-16T11:37:41.430Z,22.50
2019-02-16T11:40:19.382Z,20.97
2019-02-16T11:42:57.439Z,23.57
2019-02-16T11:45:37.276Z,26.12
2019-02-16T11:48:30.642Z,22.75
2019-02-16T11:51:23.828Z,23.40
2019-02-16T11:54:17.529Z,24.00
2019-02-16T11:57:04.063Z,25.23
2019-02-16T11:59:52.819Z,21.05
2019-02-16T12:02:39.459Z,29.42
2019-02-16T12:05:14.359Z,21.12
2019-02-16T12:08:02.170Z,22.80
2019-02-16T12:10:40.989Z,20.45
2019-02-16T12:13:27.240Z,26.57
2019-02-16T12:16:12.680Z,29.63
2019-02-16T12:19:00.522Z,29.32
2019-02-16T12:21:53.897Z,31.97
2019-02-16T12:25:05.103Z,32.83
2019-02-16T12:27:35.344Z,35.28
2019-02-16T12:30:22.103Z,33.33
2019-02-16T12:33:12.584Z,32.15
2019-02-16T12:35:59.025Z,33.92
2019-02-16T12:38:45.580Z,29.05
2019-02-16T12:41:36.542Z,31.77
2019-02-16T12:44:30.331Z,28.30
2019-02-16T12:47:27.072Z,30.30
2019-02-16T12:50:16.962Z,28.60
2019-02-16T12:53:08.004Z,29.70
2019-02-16T12:55:54.495Z,30.37
2019-02-16T12:58:29.909Z,41.70
2019-02-16T13:01:05.651Z,28.55
2019-02-16T13:04:05.430Z,29.82
2019-02-16T13:06:53.373Z,28.50
2019-02-16T13:09:40.372Z,24.65
2019-02-16T13:12:17.178Z,28.83
2019-02-16T13:15:02.610Z,23.75
2019-02-16T13:17:37.403Z,27.62
2019-02-16T13:20:17.500Z,25.60
2019-02-16T13:23:06.931Z,26.62
2019-02-16T13:25:43.836Z,23.80
2019-02-16T13:28:24.355Z,24.75
2019-02-16T13:31:08.210Z,24.60
2019-02-16T13:33:48.084Z,30.17
2019-02-16T13:36:42.158Z,26.15
2019-02-16T13:39:28.727Z,24.25
2019-02-16T13:42:02.352Z,24.20
2019-02-16T13:44:53.287Z,26.70
2019-02-16T13:47:27.803Z,22.58
2019-02-16T13:50:20.326Z,20.48
2019-02-16T13:53:14.390Z,19.60
2019-02-16T13:56:04.738Z,23.27
2019-02-16T13:58:40.135Z,24.00
2019-02-16T14:01:17.605Z,22.13
2019-02-16T14:04:00.987Z,23.12
2019-02-16T14:06:39.310Z,22.00
2019-02-16T14:09:19.991Z,23.73
2019-02-16T14:12:11.618Z,24.32
2019-02-16T14:14:46.623Z,20.90
2019-02-16T14:17:29.921Z,23.20
2019-02-16T14:19:58.769Z,20.27
2019-02-16T14:22:27.505Z,22.05
2019-02-16T14:24:58.661Z,21.17
2019-02-16T14:27:27.482Z,23.07
2019-02-16T14:29:56.265Z,19.40
2019-02-16T14:32:25.027Z,19.02
2019-02-16T14:34:54.218Z,24.27
2019-02-16T14:37:38.143Z,19.12
2019-02-16T14:40:07.192Z,23.02
2019-02-16T14:42:35.905Z,23.30
2019-02-16T14:45:05.021Z,20.05
2019-02-16T14:47:33.777Z,21.57
2019-02-16T14:50:02.612Z,20.60
2019-02-16T14:52:31.309Z,27.73
2019-02-16T14:55:00.309Z,18.55
2019-02-16T14:57:29.085Z,23.18
2019-02-16T14:59:57.798Z,20.60
2019-02-16T15:02:26.494Z,19.35
2019-02-16T15:04:55.332Z,17.57
2019-02-16T15:07:24.077Z,16.65
2019-02-16T15:09:53.046Z,22.25
2019-02-16T15:12:21.809Z,24.18
2019-02-16T15:14:50.589Z,21.12
2019-02-16T15:17:19.616Z,21.73
2019-02-16T15:19:54.213Z,20.43
2019-02-16T15:22:22.959Z,18.40
2019-02-16T15:24:51.679Z,19.10
2019-02-16T15:27:21.675Z,25.57
2019-02-16T15:29:50.437Z,18.65
2019-02-16T15:32:19.223Z,25.75
2019-02-16T15:34:48.023Z,24.07
2019-02-16T15:37:16.845Z,20.55
2019-02-16T15:39:45.750Z,21.55
2019-02-16T15:42:14.556Z,21.48
2019-02-16T15:44:43.329Z,21.15
2019-02-16T15:47:12.116Z,17.42
2019-02-16T15:49:41.197Z,25.50
2019-02-16T15:52:10.027Z,21.52
2019-02-16T15:54:38.941Z,29.25
2019-02-16T15:57:07.697Z,25.20
2019-02-16T15:59:36.531Z,24.60
2019-02-16T16:02:05.501Z,22.07
2019-02-16T16:04:34.411Z,30.80
2019-02-16T16:07:04.925Z,22.98
2019-02-16T16:09:43.538Z,23.20
2019-02-16T16:12:49.561Z,25.68
2019-02-16T16:15:28.838Z,28.92
2019-02-16T16:18:16.697Z,24.15
2019-02-16T16:21:19.725Z,25.90
2019-02-16T16:24:05.844Z,25.65
2019-02-16T16:27:05.929Z,29.20
2019-02-16T16:30:11.534Z,27.90
2019-02-16T16:33:02.621Z,27.42
2019-02-16T16:35:50.597Z,24.20
2019-02-16T16:38:47.379Z,30.97
2019-02-16T16:41:35.304Z,24.05
2019-02-16T16:44:26.136Z,34.58
2019-02-16T16:47:12.631Z,24.63
2019-02-16T16:50:18.530Z,21.00
2019-02-16T16:52:57.380Z,21.07
2019-02-16T16:55:44.482Z,26.25
2019-02-16T16:58:29.534Z,30.48
2019-02-16T17:01:10.440Z,24.70
2019-02-16T17:05:00.369Z,23.95
2019-02-16T17:07:59.710Z,29.35
2019-02-16T17:11:05.661Z,30.23
2019-02-16T17:13:46.045Z,24.50
2019-02-16T17:16:26.157Z,28.52
2019-02-16T17:19:01.760Z,23.67
2019-02-16T17:21:55.446Z,25.52
2019-02-16T17:24:58.312Z,31.90
2019-02-16T17:27:47.166Z,38.35
2019-02-16T17:30:53.218Z,28.10
2019-02-16T17:33:38.712Z,28.47
2019-02-16T17:36:28.744Z,29.75
2019-02-16T17:39:07.347Z,30.77
2019-02-16T17:42:01.293Z,30.48
2019-02-16T17:44:38.113Z,30.10
2019-02-16T17:47:32.045Z,34.67
2019-02-16T17:50:05.644Z,40.70
2019-02-16T17:52:54.232Z,32.78
2019-02-16T17:55:54.256Z,28.20
2019-02-16T17:58:30.830Z,32.85
2019-02-16T18:01:21.365Z,30.35
2019-02-16T18:04:12.365Z,42.30
2019-02-16T18:07:01.456Z,33.23
2019-02-16T18:09:40.794Z,25.65
2019-02-16T18:12:26.958Z,26.80
2019-02-16T18:15:14.874Z,33.28
2019-02-16T18:17:56.770Z,29.02
2019-02-16T18:20:44.632Z,32.48
2019-02-16T18:23:31.029Z,41.95
2019-02-16T18:26:34.041Z,27.98
2019-02-16T18:29:37.078Z,29.92
2019-02-16T18:32:31.333Z,35.05
2019-02-16T18:35:35.829Z,41.18
2019-02-16T18:38:14.051Z,41.65
2019-02-16T18:41:00.783Z,43.13
2019-02-16T18:43:45.571Z,36.85
2019-02-16T18:46:29.529Z,34.75
2019-02-16T18:49:22.701Z,38.45
2019-02-16T18:52:05.868Z,47.03
2019-02-16T18:54:45.188Z,37.70
2019-02-16T18:57:39.545Z,36.95
2019-02-16T19:00:19.235Z,38.98
2019-02-16T19:02:55.911Z,31.33
2019-02-16T19:05:43.852Z,39.65
2019-02-16T19:08:21.915Z,35.43
2019-02-16T19:11:08.520Z,39.75
2019-02-16T19:13:54.754Z,42.73
2019-02-16T19:16:41.389Z,40.08
2019-02-16T19:19:34.211Z,35.23
2019-02-16T19:22:19.011Z,33.15
2019-02-16T19:25:07.021Z,43.02
2019-02-16T19:27:57.954Z,36.10
2019-02-16T19:30:44.546Z,49.98
2019-02-16T19:33:28.763Z,37.48
2019-02-16T19:36:06.319Z,39.83
2019-02-16T19:38:49.061Z,36.10
2019-02-16T19:41:49.310Z,33.80
2019-02-16T19:44:34.184Z,37.33
2019-02-16T19:47:18.673Z,38.53
2019-02-16T19:50:05.244Z,37.95
2019-02-16T19:52:46.761Z,32.35
2019-02-16T19:55:36.880Z,39.27
2019-02-16T19:58:23.211Z,41.23
2019-02-16T20:01:11.108Z,42.62
2019-02-16T20:04:05.285Z,42.27
2019-02-16T20:06:45.612Z,43.50
2019-02-16T20:09:17.175Z,42.17
2019-02-16T20:12:14.171Z,44.33
2019-02-16T20:15:16.915Z,48.23
2019-02-16T20:17:59.462Z,48.38
2019-02-16T20:20:53.448Z,47.03
2019-02-16T20:23:48.577Z,43.58
2019-02-16T20:26:29.958Z,48.52
2019-02-16T20:29:23.774Z,37.80
2019-02-16T20:32:10.461Z,47.45
2019-02-16T20:34:52.591Z,50.23
2019-02-16T20:37:43.462Z,42.40
2019-02-16T20:40:23.650Z,39.00
2019-02-16T20:43:14.279Z,45.88
2019-02-16T20:45:58.567Z,45.10
2019-02-16T20:48:55.440Z,48.28
2019-02-16T20:51:42.272Z,39.35
2019-02-16T20:54:33.069Z,43.25
2019-02-16T20:57:19.333Z,41.85
2019-02-16T21:00:22.433Z,43.95
2019-02-16T21:03:06.192Z,43.35
2019-02-16T21:05:57.065Z,41.77
2019-02-16T21:08:54.566Z,43.85
2019-02-16T21:11:39.980Z,39.03
2019-02-16T21:14:39.815Z,52.33
2019-02-16T21:17:26.092Z,49.55
2019-02-16T21:20:01.338Z,42.27
2019-02-16T21:22:51.966Z,45.60
2019-02-16T21:25:51.656Z,44.30
2019-02-16T21:28:29.987Z,42.35
2019-02-16T21:31:09.588Z,45.55
2019-02-16T21:34:15.276Z,47.17
2019-02-16T21:36:55.078Z,47.67
2019-02-16T21:39:47.348Z,44.58
2019-02-16T21:42:33.384Z,34.85
2019-02-16T21:45:19.958Z,42.35
2019-02-16T21:48:06.372Z,44.48
2019-02-16T21:51:00.313Z,53.23
2019-02-16T21:54:06.428Z,41.40
2019-02-16T21:56:52.360Z,48.98
2019-02-16T21:59:33.567Z,49.48
2019-02-16T22:02:10.682Z,57.10
2019-02-16T22:04:55.244Z,43.98
2019-02-16T22:07:39.236Z,43.38
2019-02-16T22:10:16.886Z,46.02
2019-02-16T22:13:07.546Z,45.55
2019-02-16T22:15:36.288Z,41.02
2019-02-16T22:18:05.233Z,45.33
2019-02-16T22:20:34.065Z,48.42
2019-02-16T22:23:05.060Z,47.85
2019-02-16T22:25:33.834Z,48.98
2019-02-16T22:28:02.673Z,43.35
2019-02-16T22:30:31.409Z,42.40
2019-02-16T22:33:00.272Z,47.98
2019-02-16T22:35:29.019Z,46.83
2019-02-16T22:37:57.857Z,46.25
2019-02-16T22:40:26.664Z,55.52
2019-02-16T22:42:55.467Z,46.05
2019-02-16T22:45:24.311Z,49.90
2019-02-16T22:47:53.024Z,55.55
2019-02-16T22:50:21.783Z,51.63
2019-02-16T22:52:50.514Z,47.05
2019-02-16T22:55:19.260Z,48.20
2019-02-16T22:57:48.023Z,46.65
2019-02-16T23:00:27.472Z,45.28
2019-02-16T23:02:56.459Z,47.70
2019-02-16T23:05:25.255Z,45.33
2019-02-16T23:07:53.977Z,44.20
2019-02-16T23:10:22.786Z,40.63
2019-02-16T23:12:51.575Z,47.35
2019-02-16T23:15:20.539Z,42.85
2019-02-16T23:17:49.265Z,43.38
2019-02-16T23:20:18.004Z,50.70
2019-02-16T23:22:46.726Z,46.85
2019-02-16T23:25:15.514Z,40.35
2019-02-16T23:27:44.891Z,45.80
2019-02-16T23:30:13.832Z,46.50
2019-02-16T23:32:42.727Z,46.92
2019-02-16T23:35:11.533Z,48.05
2019-02-16T23:37:40.268Z,45.90
2019-02-16T23:40:09.102Z,47.10
2019-02-16T23:42:38.672Z,44.33
2019-02-16T23:45:07.664Z,54.45
2019-02-16T23:47:36.587Z,46.83
2019-02-16T23:50:05.729Z,55.38
2019-02-16T23:52:34.776Z,53.42
2019-02-16T23:55:05.309Z,40.75
2019-02-16T23:57:34.038Z,47.85
